createdAt,value
2019-01-24T00:01:25.691Z,84.90
2019-01-24T00:04:16.852Z,80.47
2019-01-24T00:07:07.401Z,80.57
2019-01-24T00:09:57.365Z,80.77
2019-01-24T00:12:47.818Z,72.70
2019-01-24T00:15:38.269Z,68.73
2019-01-24T00:18:28.554Z,73.10
2019-01-24T00:21:18.522Z,80.00
2019-01-24T00:24:08.779Z,83.87
2019-01-24T00:26:58.986Z,81.90
2019-01-24T00:29:49.145Z,90.93
2019-01-24T00:32:39.213Z,81.77
2019-01-24T00:35:29.301Z,82.90
2019-01-24T00:38:19.514Z,85.90
2019-01-24T00:41:09.943Z,86.43
2019-01-24T00:44:00.423Z,84.30
2019-01-24T00:46:50.869Z,80.97
2019-01-24T00:49:41.310Z,83.20
2019-01-24T00:52:32.160Z,94.50
2019-01-24T00:55:22.178Z,79.80
2019-01-24T00:58:12.481Z,93.67
2019-01-24T01:01:02.596Z,81.93
2019-01-24T01:03:53.167Z,91.97
2019-01-24T01:06:43.461Z,79.97
2019-01-24T01:09:33.567Z,87.33
2019-01-24T01:12:23.991Z,87.87
2019-01-24T01:15:16.590Z,82.53
2019-01-24T01:18:06.452Z,87.67
2019-01-24T01:20:56.405Z,91.70
2019-01-24T01:23:46.482Z,88.23
2019-01-24T01:26:36.689Z,91.17
2019-01-24T01:29:26.745Z,84.73
2019-01-24T01:32:17.126Z,93.57
2019-01-24T01:35:07.681Z,77.90
2019-01-24T01:37:58.061Z,86.80
2019-01-24T01:40:48.609Z,73.17
2019-01-24T01:43:39.046Z,75.97
2019-01-24T01:46:29.162Z,90.27
2019-01-24T01:49:19.103Z,90.13
2019-01-24T01:52:09.176Z,84.93
2019-01-24T01:54:59.225Z,88.37
2019-01-24T01:57:50.013Z,104.27
2019-01-24T02:00:40.649Z,84.20
2019-01-24T02:03:30.657Z,76.73
2019-01-24T02:06:20.778Z,85.20
2019-01-24T02:09:11.089Z,78.73
2019-01-24T02:12:01.393Z,83.63
2019-01-24T02:14:51.681Z,81.17
2019-01-24T02:17:41.992Z,85.27
2019-01-24T02:20:32.019Z,95.10
2019-01-24T02:23:22.447Z,107.20
2019-01-24T02:26:13.421Z,120.43
2019-01-24T02:29:03.393Z,98.63
2019-01-24T02:31:53.378Z,96.67
2019-01-24T02:34:49.694Z,98.73
2019-01-24T02:37:36.782Z,104.53
2019-01-24T02:40:26.912Z,107.93
2019-01-24T02:43:17.509Z,120.73
2019-01-24T02:46:07.964Z,104.30
2019-01-24T02:48:57.939Z,111.20
2019-01-24T02:51:47.921Z,182.20
2019-01-24T02:54:38.682Z,227.17
2019-01-24T02:57:28.737Z,91.83
2019-01-24T03:00:23.018Z,74.90
2019-01-24T03:03:13.009Z,77.23
2019-01-24T03:06:02.922Z,71.17
2019-01-24T03:08:53.002Z,65.63
2019-01-24T03:11:43.363Z,73.97
2019-01-24T03:14:33.522Z,91.80
2019-01-24T03:17:24.624Z,94.50
2019-01-24T03:20:16.186Z,79.20
2019-01-24T03:23:06.579Z,77.13
2019-01-24T03:25:57.171Z,76.30
2019-01-24T03:28:47.115Z,109.73
2019-01-24T03:31:37.132Z,67.07
2019-01-24T03:34:27.942Z,63.13
2019-01-24T03:37:18.214Z,61.47
2019-01-24T03:40:10.080Z,68.97
2019-01-24T03:43:00.466Z,67.27
2019-01-24T03:45:51.258Z,88.53
2019-01-24T03:48:41.573Z,92.83
2019-01-24T03:51:32.417Z,80.90
2019-01-24T03:54:23.030Z,85.57
2019-01-24T03:57:13.159Z,87.90
2019-01-24T04:00:03.590Z,106.93
2019-01-24T04:02:53.710Z,109.53
2019-01-24T04:05:43.798Z,111.20
2019-01-24T04:08:34.090Z,112.93
2019-01-24T04:11:24.577Z,132.30
2019-01-24T04:14:14.714Z,112.77
2019-01-24T04:17:04.906Z,99.77
2019-01-24T04:19:55.009Z,99.47
2019-01-24T04:22:45.282Z,88.03
2019-01-24T04:25:35.712Z,94.33
2019-01-24T04:28:25.917Z,92.70
2019-01-24T04:31:16.260Z,92.27
2019-01-24T04:34:06.336Z,91.20
2019-01-24T04:36:57.921Z,92.00
2019-01-24T04:39:48.002Z,95.23
2019-01-24T04:42:38.032Z,92.03
2019-01-24T04:45:28.794Z,93.80
2019-01-24T04:48:19.023Z,94.40
2019-01-24T04:51:09.459Z,96.97
2019-01-24T04:53:59.908Z,93.87
2019-01-24T04:56:50.119Z,98.53
2019-01-24T04:59:40.716Z,91.23
2019-01-24T05:02:30.915Z,96.27
2019-01-24T05:05:27.546Z,102.37
2019-01-24T05:08:12.559Z,101.90
2019-01-24T05:11:02.656Z,102.67
2019-01-24T05:13:52.754Z,100.93
2019-01-24T05:16:43.551Z,105.13
2019-01-24T05:19:33.661Z,105.67
2019-01-24T05:22:24.273Z,102.30
2019-01-24T05:25:15.811Z,100.73
2019-01-24T05:28:05.987Z,97.77
2019-01-24T05:30:56.047Z,106.53
2019-01-24T05:33:46.334Z,111.33
2019-01-24T05:36:36.630Z,105.27
2019-01-24T05:39:27.046Z,111.00
2019-01-24T05:42:17.115Z,102.90
2019-01-24T05:45:07.642Z,101.27
2019-01-24T05:47:57.614Z,106.47
2019-01-24T05:50:47.996Z,125.33
2019-01-24T05:53:38.525Z,97.97
2019-01-24T05:56:32.281Z,234.43
2019-01-24T05:59:22.776Z,105.00
2019-01-24T06:02:14.190Z,98.43
2019-01-24T06:05:05.493Z,99.90
2019-01-24T06:07:55.840Z,250.00
2019-01-24T06:10:45.794Z,165.97
2019-01-24T06:13:36.078Z,266.63
2019-01-24T06:16:26.268Z,182.03
2019-01-24T06:19:16.453Z,147.27
2019-01-24T06:22:07.206Z,288.87
2019-01-24T06:24:58.365Z,279.53
2019-01-24T06:27:48.586Z,241.00
2019-01-24T06:30:39.202Z,267.63
2019-01-24T06:33:30.158Z,273.10
2019-01-24T06:36:20.274Z,405.17
2019-01-24T06:39:10.377Z,295.60
2019-01-24T06:42:00.602Z,55.20
2019-01-24T06:44:51.123Z,61.90
2019-01-24T06:47:41.897Z,72.20
2019-01-24T06:50:32.234Z,74.10
2019-01-24T06:53:22.870Z,79.27
2019-01-24T06:56:12.894Z,74.60
2019-01-24T06:59:03.232Z,50.00
2019-01-24T07:01:53.238Z,40.00
2019-01-24T07:04:43.998Z,45.00
2019-01-24T07:07:33.925Z,42.37
2019-01-24T07:10:24.264Z,67.13
2019-01-24T07:13:14.567Z,59.13
2019-01-24T07:16:04.493Z,63.80
2019-01-24T07:18:54.785Z,321.57
2019-01-24T07:21:45.786Z,300.10
2019-01-24T07:24:35.993Z,115.63
2019-01-24T07:27:26.290Z,183.40
2019-01-24T07:30:17.590Z,183.47
2019-01-24T07:33:08.322Z,210.67
2019-01-24T07:36:02.339Z,129.70
2019-01-24T07:38:50.871Z,98.83
2019-01-24T07:41:41.185Z,100.20
2019-01-24T07:44:31.443Z,72.27
2019-01-24T07:47:21.653Z,73.40
2019-01-24T07:50:12.546Z,70.50
2019-01-24T07:53:02.775Z,65.17
2019-01-24T07:55:52.718Z,63.53
2019-01-24T07:58:43.149Z,67.10
2019-01-24T08:01:33.711Z,65.90
2019-01-24T08:04:23.950Z,72.67
2019-01-24T08:07:14.073Z,75.10
2019-01-24T08:10:05.790Z,73.47
2019-01-24T08:12:55.801Z,82.13
2019-01-24T08:15:45.836Z,67.57
2019-01-24T08:18:36.182Z,68.57
2019-01-24T08:21:26.172Z,81.33
2019-01-24T08:24:16.103Z,83.90
2019-01-24T08:27:06.858Z,112.87
2019-01-24T08:29:56.869Z,124.53
2019-01-24T08:32:47.278Z,123.33
2019-01-24T08:35:37.726Z,124.90
2019-01-24T08:38:28.170Z,128.60
2019-01-24T08:41:18.582Z,120.27
2019-01-24T08:44:08.477Z,111.27
2019-01-24T08:46:58.715Z,114.47
2019-01-24T08:49:50.134Z,126.30
2019-01-24T08:52:40.350Z,112.53
2019-01-24T08:55:33.570Z,111.57
2019-01-24T08:58:23.793Z,120.00
2019-01-24T09:01:14.189Z,122.60
2019-01-24T09:04:04.461Z,113.77
2019-01-24T09:06:54.714Z,118.40
2019-01-24T09:09:44.918Z,129.60
2019-01-24T09:12:35.317Z,138.43
2019-01-24T09:15:26.126Z,119.87
2019-01-24T09:18:16.108Z,123.33
2019-01-24T09:21:06.374Z,136.17
2019-01-24T09:23:56.721Z,128.73
2019-01-24T09:26:47.190Z,132.43
2019-01-24T09:29:37.950Z,131.03
2019-01-24T09:32:27.931Z,117.97
2019-01-24T09:35:18.571Z,122.37
2019-01-24T09:38:08.625Z,121.43
2019-01-24T09:40:59.232Z,116.73
2019-01-24T09:43:49.371Z,114.80
2019-01-24T09:46:39.621Z,130.73
2019-01-24T09:49:29.863Z,124.37
2019-01-24T09:52:20.182Z,123.63
2019-01-24T09:55:10.758Z,117.23
2019-01-24T09:58:00.974Z,119.20
2019-01-24T10:00:51.574Z,102.87
2019-01-24T10:03:41.794Z,97.37
2019-01-24T10:06:36.207Z,97.80
2019-01-24T10:09:23.873Z,94.53
2019-01-24T10:12:14.415Z,89.83
2019-01-24T10:15:06.266Z,91.03
2019-01-24T10:17:56.510Z,95.50
2019-01-24T10:20:46.722Z,93.23
2019-01-24T10:23:36.985Z,96.37
2019-01-24T10:26:27.178Z,94.33
2019-01-24T10:29:17.218Z,91.67
2019-01-24T10:32:08.053Z,95.23
2019-01-24T10:34:58.386Z,94.37
2019-01-24T10:37:49.115Z,91.73
2019-01-24T10:40:39.468Z,91.27
2019-01-24T10:43:29.285Z,92.43
2019-01-24T10:46:19.707Z,84.03
2019-01-24T10:49:09.894Z,93.73
2019-01-24T10:52:00.149Z,90.83
2019-01-24T10:54:50.421Z,90.00
2019-01-24T10:57:41.194Z,88.57
2019-01-24T11:00:39.986Z,95.20
2019-01-24T11:03:30.203Z,96.47
2019-01-24T11:06:20.569Z,92.00
2019-01-24T11:09:10.874Z,92.63
2019-01-24T11:12:01.238Z,94.23
2019-01-24T11:14:51.289Z,92.30
2019-01-24T11:17:41.822Z,98.93
2019-01-24T11:20:31.866Z,91.17
2019-01-24T11:23:22.161Z,95.50
2019-01-24T11:26:13.829Z,98.47
2019-01-24T11:29:05.501Z,96.03
2019-01-24T11:31:56.154Z,88.33
2019-01-24T11:34:46.646Z,95.63
2019-01-24T11:37:37.087Z,94.70
2019-01-24T11:40:27.885Z,93.80
2019-01-24T11:43:18.175Z,101.13
2019-01-24T11:46:08.163Z,101.43
2019-01-24T11:48:58.415Z,99.27
2019-01-24T11:51:48.407Z,96.83
2019-01-24T11:54:38.597Z,93.47
2019-01-24T11:57:28.914Z,88.80
2019-01-24T12:00:25.826Z,92.53
2019-01-24T12:03:15.893Z,88.80
2019-01-24T12:06:06.682Z,86.40
2019-01-24T12:08:57.030Z,81.00
2019-01-24T12:11:47.314Z,79.67
2019-01-24T12:14:37.402Z,73.43
2019-01-24T12:17:27.882Z,76.03
2019-01-24T12:20:20.625Z,82.93
2019-01-24T12:23:11.050Z,77.40
2019-01-24T12:26:01.664Z,77.33
2019-01-24T12:28:51.937Z,79.23
2019-01-24T12:31:42.041Z,73.30
2019-01-24T12:34:32.049Z,80.83
2019-01-24T12:37:22.133Z,85.60
2019-01-24T12:40:13.306Z,88.10
2019-01-24T12:43:03.345Z,90.83
2019-01-24T12:45:53.646Z,82.67
2019-01-24T12:48:44.171Z,93.93
2019-01-24T12:51:34.330Z,84.40
2019-01-24T12:54:24.310Z,90.17
2019-01-24T12:57:14.434Z,90.67
2019-01-24T13:00:06.142Z,83.40
2019-01-24T13:02:56.867Z,93.10
2019-01-24T13:05:46.799Z,92.20
2019-01-24T13:08:36.697Z,91.07
2019-01-24T13:11:26.761Z,102.97
2019-01-24T13:14:17.161Z,97.30
2019-01-24T13:17:07.447Z,100.73
2019-01-24T13:19:57.848Z,101.50
2019-01-24T13:22:48.050Z,104.97
2019-01-24T13:25:38.604Z,103.20
2019-01-24T13:28:29.094Z,97.17
2019-01-24T13:31:19.086Z,95.13
2019-01-24T13:34:09.314Z,88.80
2019-01-24T13:36:59.611Z,93.43
2019-01-24T13:39:49.958Z,100.03
2019-01-24T13:42:40.205Z,100.87
2019-01-24T13:45:36.860Z,98.13
2019-01-24T13:48:27.481Z,99.27
2019-01-24T13:51:17.597Z,99.77
2019-01-24T13:54:07.622Z,102.20
2019-01-24T13:56:58.986Z,105.50
2019-01-24T13:59:49.182Z,95.13
2019-01-24T14:02:40.938Z,98.40
2019-01-24T14:05:32.312Z,102.27
2019-01-24T14:08:22.558Z,96.17
2019-01-24T14:11:18.051Z,95.03
2019-01-24T14:14:04.942Z,111.17
2019-01-24T14:16:55.138Z,97.17
2019-01-24T14:19:45.662Z,93.17
2019-01-24T14:22:35.978Z,96.13
2019-01-24T14:25:26.354Z,89.83
2019-01-24T14:28:16.554Z,101.23
2019-01-24T14:31:06.578Z,92.60
2019-01-24T14:33:57.012Z,95.60
2019-01-24T14:36:47.287Z,93.43
2019-01-24T14:39:37.633Z,90.83
2019-01-24T14:42:27.948Z,92.70
2019-01-24T14:45:20.317Z,92.73
2019-01-24T14:48:10.530Z,87.67
2019-01-24T14:51:01.189Z,93.13
2019-01-24T14:53:51.654Z,101.23
2019-01-24T14:56:42.018Z,99.17
2019-01-24T14:59:32.254Z,96.50
2019-01-24T15:02:22.581Z,95.33
2019-01-24T15:05:12.797Z,91.27
2019-01-24T15:08:02.970Z,97.57
2019-01-24T15:10:53.490Z,97.27
2019-01-24T15:13:43.440Z,101.60
2019-01-24T15:16:34.250Z,99.63
2019-01-24T15:19:24.578Z,92.03
2019-01-24T15:22:15.011Z,95.03
2019-01-24T15:25:05.659Z,93.17
2019-01-24T15:27:56.343Z,87.33
2019-01-24T15:30:46.476Z,91.07
2019-01-24T15:33:36.754Z,82.83
2019-01-24T15:36:27.135Z,103.13
2019-01-24T15:39:17.279Z,94.33
2019-01-24T15:42:07.690Z,94.33
2019-01-24T15:44:57.921Z,90.37
2019-01-24T15:47:48.622Z,91.07
2019-01-24T15:50:38.929Z,92.37
2019-01-24T15:53:28.935Z,99.90
2019-01-24T15:56:19.175Z,90.00
2019-01-24T15:59:09.264Z,86.10
2019-01-24T16:01:59.202Z,91.97
2019-01-24T16:04:50.261Z,102.97
2019-01-24T16:07:40.717Z,92.67
2019-01-24T16:10:31.319Z,88.57
2019-01-24T16:13:21.401Z,96.33
2019-01-24T16:16:11.685Z,91.57
2019-01-24T16:19:02.323Z,91.80
2019-01-24T16:21:52.339Z,105.93
2019-01-24T16:24:42.633Z,97.23
2019-01-24T16:27:32.942Z,92.17
2019-01-24T16:30:25.287Z,103.27
2019-01-24T16:33:15.435Z,110.53
2019-01-24T16:36:05.610Z,97.27
2019-01-24T16:38:55.928Z,102.03
2019-01-24T16:41:46.074Z,98.27
2019-01-24T16:44:36.049Z,98.50
2019-01-24T16:47:26.314Z,98.60
2019-01-24T16:50:17.845Z,95.83
2019-01-24T16:53:09.114Z,103.73
2019-01-24T16:55:59.327Z,102.73
2019-01-24T16:58:49.537Z,101.03
2019-01-24T17:01:40.474Z,110.33
2019-01-24T17:04:30.791Z,111.93
2019-01-24T17:07:21.187Z,97.80
2019-01-24T17:10:13.896Z,101.73
2019-01-24T17:13:04.825Z,96.33
2019-01-24T17:15:54.897Z,107.63
2019-01-24T17:18:45.326Z,102.30
2019-01-24T17:21:35.225Z,89.23
2019-01-24T17:24:25.178Z,97.67
2019-01-24T17:27:15.222Z,99.73
2019-01-24T17:30:08.295Z,88.93
2019-01-24T17:32:58.705Z,103.30
2019-01-24T17:35:49.497Z,99.93
2019-01-24T17:38:39.515Z,99.10
2019-01-24T17:41:29.826Z,97.67
2019-01-24T17:44:20.228Z,101.53
2019-01-24T17:47:10.634Z,104.00
2019-01-24T17:50:01.246Z,107.23
2019-01-24T17:52:53.126Z,108.23
2019-01-24T17:55:45.717Z,108.47
2019-01-24T17:58:36.051Z,109.97
2019-01-24T18:01:26.110Z,105.07
2019-01-24T18:04:21.670Z,110.90
2019-01-24T18:07:08.502Z,99.33
2019-01-24T18:09:59.122Z,110.37
2019-01-24T18:12:49.118Z,100.20
2019-01-24T18:15:39.113Z,96.90
2019-01-24T18:18:29.484Z,109.80
2019-01-24T18:21:19.833Z,105.03
2019-01-24T18:24:10.201Z,100.40
2019-01-24T18:27:00.670Z,102.10
2019-01-24T18:29:51.067Z,98.37
2019-01-24T18:32:41.164Z,108.87
2019-01-24T18:35:32.118Z,117.77
2019-01-24T18:38:22.157Z,110.73
2019-01-24T18:41:12.514Z,95.70
2019-01-24T18:44:02.666Z,114.30
2019-01-24T18:46:52.741Z,121.50
2019-01-24T18:49:43.047Z,117.27
2019-01-24T18:52:32.994Z,112.53
2019-01-24T18:55:23.282Z,109.03
2019-01-24T18:58:13.878Z,117.03
2019-01-24T19:01:04.549Z,116.60
2019-01-24T19:03:54.574Z,107.77
2019-01-24T19:06:45.399Z,119.10
2019-01-24T19:09:35.360Z,145.27
2019-01-24T19:12:25.285Z,140.60
2019-01-24T19:15:17.734Z,245.23
2019-01-24T19:18:12.054Z,258.20
2019-01-24T19:21:02.503Z,192.00
2019-01-24T19:23:53.654Z,134.33
2019-01-24T19:26:43.646Z,116.70
2019-01-24T19:29:34.429Z,118.30
2019-01-24T19:32:24.583Z,133.07
2019-01-24T19:35:14.722Z,119.97
2019-01-24T19:38:05.126Z,114.53
2019-01-24T19:40:55.546Z,120.90
2019-01-24T19:43:45.599Z,132.97
2019-01-24T19:46:35.838Z,130.30
2019-01-24T19:49:26.238Z,126.27
2019-01-24T19:52:16.384Z,114.27
2019-01-24T19:55:08.194Z,122.40
2019-01-24T19:57:58.256Z,111.43
2019-01-24T20:00:48.354Z,105.20
2019-01-24T20:03:38.674Z,110.00
2019-01-24T20:06:29.329Z,115.33
2019-01-24T20:09:20.357Z,111.77
2019-01-24T20:12:10.912Z,105.80
2019-01-24T20:15:01.066Z,111.53
2019-01-24T20:17:51.274Z,110.87
2019-01-24T20:20:42.087Z,119.00
2019-01-24T20:23:32.391Z,118.60
2019-01-24T20:26:22.469Z,108.20
2019-01-24T20:29:12.589Z,123.73
2019-01-24T20:32:02.677Z,121.03
2019-01-24T20:34:52.990Z,118.83
2019-01-24T20:37:43.960Z,104.53
2019-01-24T20:40:35.218Z,106.87
2019-01-24T20:43:26.106Z,106.60
2019-01-24T20:46:16.288Z,94.40
2019-01-24T20:49:06.378Z,101.30
2019-01-24T20:51:56.363Z,92.57
2019-01-24T20:54:46.691Z,102.37
2019-01-24T20:57:37.146Z,91.83
2019-01-24T21:00:27.438Z,102.53
2019-01-24T21:03:17.418Z,105.43
2019-01-24T21:06:07.798Z,83.70
2019-01-24T21:08:58.318Z,92.07
2019-01-24T21:11:48.803Z,83.37
2019-01-24T21:14:38.833Z,91.70
2019-01-24T21:17:28.770Z,104.13
2019-01-24T21:20:21.070Z,91.07
2019-01-24T21:23:11.135Z,91.50
2019-01-24T21:26:01.075Z,79.40
2019-01-24T21:28:51.895Z,82.60
2019-01-24T21:31:42.114Z,89.27
2019-01-24T21:34:33.373Z,77.60
2019-01-24T21:37:24.005Z,79.47
2019-01-24T21:40:16.408Z,85.07
2019-01-24T21:43:06.866Z,75.23
2019-01-24T21:45:56.997Z,75.57
2019-01-24T21:48:47.441Z,74.83
2019-01-24T21:51:37.617Z,75.13
2019-01-24T21:54:28.246Z,78.47
2019-01-24T21:57:18.870Z,70.53
2019-01-24T22:00:10.746Z,81.37
2019-01-24T22:03:00.984Z,84.07
2019-01-24T22:05:51.272Z,76.80
2019-01-24T22:08:41.214Z,79.57
2019-01-24T22:11:31.085Z,82.23
2019-01-24T22:14:21.402Z,79.87
2019-01-24T22:17:11.639Z,80.27
2019-01-24T22:20:03.049Z,73.47
2019-01-24T22:22:53.281Z,77.70
2019-01-24T22:25:43.430Z,84.03
2019-01-24T22:28:33.746Z,85.57
2019-01-24T22:31:23.847Z,80.47
2019-01-24T22:34:14.034Z,78.57
2019-01-24T22:37:04.179Z,77.07
2019-01-24T22:39:54.541Z,80.77
2019-01-24T22:42:44.766Z,82.67
2019-01-24T22:45:35.449Z,70.73
2019-01-24T22:48:25.908Z,80.93
2019-01-24T22:51:16.502Z,76.53
2019-01-24T22:54:06.451Z,77.37
2019-01-24T22:56:56.821Z,81.47
2019-01-24T22:59:46.825Z,72.67
2019-01-24T23:02:36.917Z,80.70
2019-01-24T23:05:27.180Z,74.60
2019-01-24T23:08:17.312Z,83.13
2019-01-24T23:11:07.933Z,85.10
2019-01-24T23:13:58.152Z,81.20
2019-01-24T23:16:49.168Z,88.10
2019-01-24T23:19:39.540Z,79.07
2019-01-24T23:22:29.542Z,84.53
2019-01-24T23:25:20.005Z,99.73
2019-01-24T23:28:10.378Z,111.93
2019-01-24T23:31:00.763Z,89.43
2019-01-24T23:33:50.778Z,95.13
2019-01-24T23:36:40.805Z,91.47
2019-01-24T23:39:31.214Z,87.17
2019-01-24T23:42:21.361Z,87.50
2019-01-24T23:45:12.745Z,103.80
2019-01-24T23:48:03.053Z,104.07
2019-01-24T23:50:53.970Z,108.30
2019-01-24T23:53:44.215Z,100.43
2019-01-24T23:56:34.534Z,103.77
2019-01-24T23:59:26.417Z,96.50
